sensor_id;sensor_type;location;lat;lon;timestamp;P1;durP1;ratioP1;P2;durP2;ratioP2
22675;SDS011;12521;43.310;21.876;2023-05-07T00:02:29;6.0;;;6.0;;
22675;SDS011;12521;43.310;21.876;2023-05-07T00:07:05;6.0;;;6.0;;
22675;SDS011;12521;43.310;21.876;2023-05-07T00:11:42;6.0;;;6.0;;
22675;SDS011;12521;43.310;21.876;2023-05-07T00:16:19;6.0;;;6.0;;
22675;SDS011;12521;43.310;21.876;2023-05-07T00:20:56;6.0;;;6.0;;
22675;SDS011;12521;43.310;21.876;2023-05-07T00:25:33;6.0;;;6.0;;
22675;SDS011;12521;43.310;21.876;2023-05-07T00:30:11;5.0;;;5.0;;
22675;SDS011;12521;43.310;21.876;2023-05-07T00:34:50;5.0;;;5.0;;
22675;SDS011;12521;43.310;21.876;2023-05-07T00:39:26;5.0;;;5.0;;
22675;SDS011;12521;43.310;21.876;2023-05-07T00:44:03;6.0;;;6.0;;
22675;SDS011;12521;43.310;21.876;2023-05-07T00:48:40;6.0;;;6.0;;
22675;SDS011;12521;43.310;21.876;2023-05-07T00:53:18;7.0;;;6.0;;
22675;SDS011;12521;43.310;21.876;2023-05-07T00:57:56;7.0;;;6.0;;
22675;SDS011;12521;43.310;21.876;2023-05-07T01:02:34;6.0;;;6.0;;
22675;SDS011;12521;43.310;21.876;2023-05-07T01:07:11;6.0;;;6.0;;
22675;SDS011;12521;43.310;21.876;2023-05-07T01:11:50;6.0;;;6.0;;
22675;SDS011;12521;43.310;21.876;2023-05-07T01:16:31;6.0;;;6.0;;
22675;SDS011;12521;43.310;21.876;2023-05-07T01:21:11;8.0;;;6.0;;
22675;SDS011;12521;43.310;21.876;2023-05-07T01:25:54;8.0;;;6.0;;
22675;SDS011;12521;43.310;21.876;2023-05-07T01:30:33;9.0;;;7.0;;
22675;SDS011;12521;43.310;21.876;2023-05-07T01:35:30;9.0;;;7.0;;
22675;SDS011;12521;43.310;21.876;2023-05-07T01:40:26;8.0;;;7.0;;
22675;SDS011;12521;43.310;21.876;2023-05-07T01:45:06;8.0;;;7.0;;
22675;SDS011;12521;43.310;21.876;2023-05-07T01:49:46;8.0;;;7.0;;
22675;SDS011;12521;43.310;21.876;2023-05-07T01:54:25;8.0;;;7.0;;
22675;SDS011;12521;43.310;21.876;2023-05-07T01:59:03;8.0;;;7.0;;
22675;SDS011;12521;43.310;21.876;2023-05-07T02:03:40;8.0;;;6.0;;
22675;SDS011;12521;43.310;21.876;2023-05-07T02:08:17;8.0;;;6.0;;
22675;SDS011;12521;43.310;21.876;2023-05-07T02:12:54;8.0;;;6.0;;
22675;SDS011;12521;43.310;21.876;2023-05-07T02:17:31;8.0;;;6.0;;
22675;SDS011;12521;43.310;21.876;2023-05-07T02:22:09;8.0;;;6.0;;
22675;SDS011;12521;43.310;21.876;2023-05-07T02:26:46;8.0;;;6.0;;
22675;SDS011;12521;43.310;21.876;2023-05-07T02:31:22;9.0;;;7.0;;
22675;SDS011;12521;43.310;21.876;2023-05-07T02:36:06;9.0;;;7.0;;
22675;SDS011;12521;43.310;21.876;2023-05-07T02:40:45;8.0;;;7.0;;
22675;SDS011;12521;43.310;21.876;2023-05-07T02:45:22;8.0;;;7.0;;
22675;SDS011;12521;43.310;21.876;2023-05-07T02:49:59;7.0;;;7.0;;
22675;SDS011;12521;43.310;21.876;2023-05-07T02:54:36;7.0;;;7.0;;
22675;SDS011;12521;43.310;21.876;2023-05-07T02:59:12;7.0;;;7.0;;
22675;SDS011;12521;43.310;21.876;2023-05-07T03:03:48;7.0;;;7.0;;
22675;SDS011;12521;43.310;21.876;2023-05-07T03:08:26;7.0;;;7.0;;
22675;SDS011;12521;43.310;21.876;2023-05-07T03:13:04;7.0;;;7.0;;
22675;SDS011;12521;43.310;21.876;2023-05-07T03:17:41;7.0;;;7.0;;
22675;SDS011;12521;43.310;21.876;2023-05-07T03:22:17;8.0;;;8.0;;
22675;SDS011;12521;43.310;21.876;2023-05-07T03:26:54;8.0;;;8.0;;
22675;SDS011;12521;43.310;21.876;2023-05-07T03:31:30;9.0;;;8.0;;
22675;SDS011;12521;43.310;21.876;2023-05-07T03:36:07;9.0;;;8.0;;
22675;SDS011;12521;43.310;21.876;2023-05-07T03:40:44;10.0;;;8.0;;
22675;SDS011;12521;43.310;21.876;2023-05-07T03:45:21;10.0;;;8.0;;
22675;SDS011;12521;43.310;21.876;2023-05-07T03:49:57;10.0;;;8.0;;
22675;SDS011;12521;43.310;21.876;2023-05-07T03:54:34;10.0;;;8.0;;
22675;SDS011;12521;43.310;21.876;2023-05-07T03:59:11;10.0;;;8.0;;
22675;SDS011;12521;43.310;21.876;2023-05-07T04:03:49;9.0;;;8.0;;
22675;SDS011;12521;43.310;21.876;2023-05-07T04:08:25;9.0;;;8.0;;
22675;SDS011;12521;43.310;21.876;2023-05-07T04:13:02;8.0;;;8.0;;
22675;SDS011;12521;43.310;21.876;2023-05-07T04:17:39;8.0;;;8.0;;
22675;SDS011;12521;43.310;21.876;2023-05-07T04:22:16;8.0;;;8.0;;
22675;SDS011;12521;43.310;21.876;2023-05-07T04:26:53;8.0;;;8.0;;
22675;SDS011;12521;43.310;21.876;2023-05-07T04:31:29;8.0;;;7.0;;
22675;SDS011;12521;43.310;21.876;2023-05-07T04:36:07;8.0;;;7.0;;
22675;SDS011;12521;43.310;21.876;2023-05-07T04:40:45;8.0;;;8.0;;
22675;SDS011;12521;43.310;21.876;2023-05-07T04:45:21;8.0;;;8.0;;
22675;SDS011;12521;43.310;21.876;2023-05-07T04:49:59;9.0;;;8.0;;
22675;SDS011;12521;43.310;21.876;2023-05-07T04:54:35;9.0;;;8.0;;
22675;SDS011;12521;43.310;21.876;2023-05-07T04:59:12;9.0;;;8.0;;
22675;SDS011;12521;43.310;21.876;2023-05-07T05:03:48;10.0;;;9.0;;
22675;SDS011;12521;43.310;21.876;2023-05-07T05:08:24;10.0;;;9.0;;
22675;SDS011;12521;43.310;21.876;2023-05-07T05:13:01;11.0;;;10.0;;
22675;SDS011;12521;43.310;21.876;2023-05-07T05:17:37;11.0;;;10.0;;
22675;SDS011;12521;43.310;21.876;2023-05-07T05:22:13;10.0;;;8.0;;
22675;SDS011;12521;43.310;21.876;2023-05-07T05:26:50;10.0;;;8.0;;
22675;SDS011;12521;43.310;21.876;2023-05-07T05:31:29;10.0;;;7.0;;
22675;SDS011;12521;43.310;21.876;2023-05-07T05:36:09;10.0;;;7.0;;
22675;SDS011;12521;43.310;21.876;2023-05-07T05:40:47;10.0;;;8.0;;
22675;SDS011;12521;43.310;21.876;2023-05-07T05:45:24;10.0;;;8.0;;
22675;SDS011;12521;43.310;21.876;2023-05-07T05:50:01;9.0;;;8.0;;
22675;SDS011;12521;43.310;21.876;2023-05-07T05:54:42;9.0;;;8.0;;
22675;SDS011;12521;43.310;21.876;2023-05-07T05:59:18;9.0;;;8.0;;
22675;SDS011;12521;43.310;21.876;2023-05-07T06:03:56;8.0;;;8.0;;
22675;SDS011;12521;43.310;21.876;2023-05-07T06:08:33;8.0;;;8.0;;
22675;SDS011;12521;43.310;21.876;2023-05-07T06:13:09;8.0;;;7.0;;
22675;SDS011;12521;43.310;21.876;2023-05-07T06:17:45;8.0;;;7.0;;
22675;SDS011;12521;43.310;21.876;2023-05-07T06:22:22;9.0;;;8.0;;
22675;SDS011;12521;43.310;21.876;2023-05-07T06:26:58;9.0;;;8.0;;
22675;SDS011;12521;43.310;21.876;2023-05-07T06:31:35;10.0;;;8.0;;
22675;SDS011;12521;43.310;21.876;2023-05-07T06:36:11;10.0;;;8.0;;
22675;SDS011;12521;43.310;21.876;2023-05-07T06:40:49;8.0;;;7.0;;
22675;SDS011;12521;43.310;21.876;2023-05-07T06:45:26;8.0;;;7.0;;
22675;SDS011;12521;43.310;21.876;2023-05-07T06:50:03;7.0;;;6.0;;
22675;SDS011;12521;43.310;21.876;2023-05-07T06:54:44;7.0;;;6.0;;
22675;SDS011;12521;43.310;21.876;2023-05-07T06:59:20;7.0;;;6.0;;
22675;SDS011;12521;43.310;21.876;2023-05-07T07:03:57;8.0;;;6.0;;
22675;SDS011;12521;43.310;21.876;2023-05-07T07:08:34;8.0;;;6.0;;
22675;SDS011;12521;43.310;21.876;2023-05-07T07:13:11;8.0;;;7.0;;
22675;SDS011;12521;43.310;21.876;2023-05-07T07:17:48;8.0;;;7.0;;
22675;SDS011;12521;43.310;21.876;2023-05-07T07:22:24;10.0;;;7.0;;
22675;SDS011;12521;43.310;21.876;2023-05-07T07:27:01;10.0;;;7.0;;
22675;SDS011;12521;43.310;21.876;2023-05-07T07:31:38;11.0;;;7.0;;
22675;SDS011;12521;43.310;21.876;2023-05-07T07:36:15;11.0;;;7.0;;
22675;SDS011;12521;43.310;21.876;2023-05-07T07:40:51;9.0;;;6.0;;
22675;SDS011;12521;43.310;21.876;2023-05-07T07:45:28;9.0;;;6.0;;
22675;SDS011;12521;43.310;21.876;2023-05-07T07:50:06;7.0;;;6.0;;
22675;SDS011;12521;43.310;21.876;2023-05-07T07:54:45;7.0;;;6.0;;
22675;SDS011;12521;43.310;21.876;2023-05-07T07:59:21;7.0;;;6.0;;
22675;SDS011;12521;43.310;21.876;2023-05-07T08:03:57;8.0;;;6.0;;
22675;SDS011;12521;43.310;21.876;2023-05-07T08:08:34;8.0;;;6.0;;
22675;SDS011;12521;43.310;21.876;2023-05-07T08:13:11;9.0;;;6.0;;
22675;SDS011;12521;43.310;21.876;2023-05-07T08:17:47;9.0;;;6.0;;
22675;SDS011;12521;43.310;21.876;2023-05-07T08:22:24;8.0;;;7.0;;
22675;SDS011;12521;43.310;21.876;2023-05-07T08:27:01;8.0;;;7.0;;
22675;SDS011;12521;43.310;21.876;2023-05-07T08:31:38;8.0;;;8.0;;
22675;SDS011;12521;43.310;21.876;2023-05-07T08:36:14;8.0;;;8.0;;
22675;SDS011;12521;43.310;21.876;2023-05-07T08:40:51;8.0;;;7.0;;
22675;SDS011;12521;43.310;21.876;2023-05-07T08:45:32;8.0;;;7.0;;
22675;SDS011;12521;43.310;21.876;2023-05-07T08:50:11;9.0;;;6.0;;
22675;SDS011;12521;43.310;21.876;2023-05-07T08:54:48;9.0;;;6.0;;
22675;SDS011;12521;43.310;21.876;2023-05-07T08:59:25;9.0;;;6.0;;
22675;SDS011;12521;43.310;21.876;2023-05-07T09:04:02;8.0;;;6.0;;
22675;SDS011;12521;43.310;21.876;2023-05-07T09:08:40;8.0;;;6.0;;
22675;SDS011;12521;43.310;21.876;2023-05-07T09:13:27;7.0;;;6.0;;
22675;SDS011;12521;43.310;21.876;2023-05-07T09:18:05;7.0;;;6.0;;
22675;SDS011;12521;43.310;21.876;2023-05-07T09:22:42;8.0;;;6.0;;
22675;SDS011;12521;43.310;21.876;2023-05-07T09:27:18;8.0;;;6.0;;
22675;SDS011;12521;43.310;21.876;2023-05-07T09:31:55;8.0;;;7.0;;
22675;SDS011;12521;43.310;21.876;2023-05-07T09:36:32;8.0;;;7.0;;
22675;SDS011;12521;43.310;21.876;2023-05-07T09:41:12;8.0;;;6.0;;
22675;SDS011;12521;43.310;21.876;2023-05-07T09:45:49;8.0;;;6.0;;
22675;SDS011;12521;43.310;21.876;2023-05-07T09:50:32;7.0;;;6.0;;
22675;SDS011;12521;43.310;21.876;2023-05-07T09:55:32;7.0;;;6.0;;
22675;SDS011;12521;43.310;21.876;2023-05-07T10:00:11;7.0;;;6.0;;
22675;SDS011;12521;43.310;21.876;2023-05-07T10:04:55;7.0;;;6.0;;
22675;SDS011;12521;43.310;21.876;2023-05-07T10:09:34;7.0;;;6.0;;
22675;SDS011;12521;43.310;21.876;2023-05-07T10:14:15;7.0;;;5.0;;
22675;SDS011;12521;43.310;21.876;2023-05-07T10:18:58;7.0;;;5.0;;
22675;SDS011;12521;43.310;21.876;2023-05-07T10:23:35;8.0;;;6.0;;
22675;SDS011;12521;43.310;21.876;2023-05-07T10:28:16;8.0;;;6.0;;
22675;SDS011;12521;43.310;21.876;2023-05-07T10:33:05;8.0;;;7.0;;
22675;SDS011;12521;43.310;21.876;2023-05-07T10:37:51;8.0;;;7.0;;
22675;SDS011;12521;43.310;21.876;2023-05-07T10:42:28;8.0;;;7.0;;
22675;SDS011;12521;43.310;21.876;2023-05-07T10:47:08;8.0;;;7.0;;
22675;SDS011;12521;43.310;21.876;2023-05-07T10:52:12;7.0;;;7.0;;
22675;SDS011;12521;43.310;21.876;2023-05-07T10:56:56;7.0;;;7.0;;
22675;SDS011;12521;43.310;21.876;2023-05-07T11:02:09;28.0;;;12.0;;
22675;SDS011;12521;43.310;21.876;2023-05-07T11:07:24;28.0;;;12.0;;
22675;SDS011;12521;43.310;21.876;2023-05-07T11:12:06;49.0;;;17.0;;
22675;SDS011;12521;43.310;21.876;2023-05-07T11:16:43;49.0;;;17.0;;
22675;SDS011;12521;43.310;21.876;2023-05-07T11:21:39;33.0;;;12.0;;
22675;SDS011;12521;43.310;21.876;2023-05-07T11:26:18;33.0;;;12.0;;
22675;SDS011;12521;43.310;21.876;2023-05-07T11:30:57;17.0;;;8.0;;
22675;SDS011;12521;43.310;21.876;2023-05-07T11:35:36;17.0;;;8.0;;
22675;SDS011;12521;43.310;21.876;2023-05-07T11:40:14;50.0;;;12.0;;
22675;SDS011;12521;43.310;21.876;2023-05-07T11:44:51;50.0;;;12.0;;
22675;SDS011;12521;43.310;21.876;2023-05-07T11:49:27;50.0;;;12.0;;
22675;SDS011;12521;43.310;21.876;2023-05-07T11:54:05;82.0;;;15.0;;
22675;SDS011;12521;43.310;21.876;2023-05-07T11:58:47;82.0;;;15.0;;
22675;SDS011;12521;43.310;21.876;2023-05-07T12:03:24;48.0;;;12.0;;
22675;SDS011;12521;43.310;21.876;2023-05-07T12:08:02;48.0;;;12.0;;
22675;SDS011;12521;43.310;21.876;2023-05-07T12:12:39;13.0;;;9.0;;
22675;SDS011;12521;43.310;21.876;2023-05-07T12:17:22;13.0;;;9.0;;
22675;SDS011;12521;43.310;21.876;2023-05-07T12:21:59;10.0;;;8.0;;
22675;SDS011;12521;43.310;21.876;2023-05-07T12:26:39;10.0;;;8.0;;
22675;SDS011;12521;43.310;21.876;2023-05-07T12:31:17;8.0;;;7.0;;
22675;SDS011;12521;43.310;21.876;2023-05-07T12:35:55;8.0;;;7.0;;
22675;SDS011;12521;43.310;21.876;2023-05-07T12:40:36;6.0;;;6.0;;
22675;SDS011;12521;43.310;21.876;2023-05-07T12:45:20;6.0;;;6.0;;
22675;SDS011;12521;43.310;21.876;2023-05-07T12:49:57;6.0;;;6.0;;
22675;SDS011;12521;43.310;21.876;2023-05-07T12:54:37;5.0;;;5.0;;
22675;SDS011;12521;43.310;21.876;2023-05-07T12:59:14;5.0;;;5.0;;
22675;SDS011;12521;43.310;21.876;2023-05-07T13:03:50;6.0;;;6.0;;
22675;SDS011;12521;43.310;21.876;2023-05-07T13:08:29;6.0;;;6.0;;
22675;SDS011;12521;43.310;21.876;2023-05-07T13:13:09;7.0;;;6.0;;
22675;SDS011;12521;43.310;21.876;2023-05-07T13:17:46;7.0;;;6.0;;
22675;SDS011;12521;43.310;21.876;2023-05-07T13:22:22;7.0;;;6.0;;
22675;SDS011;12521;43.310;21.876;2023-05-07T13:26:58;7.0;;;6.0;;
22675;SDS011;12521;43.310;21.876;2023-05-07T13:31:35;7.0;;;6.0;;
22675;SDS011;12521;43.310;21.876;2023-05-07T13:36:11;7.0;;;6.0;;
22675;SDS011;12521;43.310;21.876;2023-05-07T13:40:48;8.0;;;6.0;;
22675;SDS011;12521;43.310;21.876;2023-05-07T13:45:25;8.0;;;6.0;;
22675;SDS011;12521;43.310;21.876;2023-05-07T13:50:02;8.0;;;6.0;;
22675;SDS011;12521;43.310;21.876;2023-05-07T13:54:42;8.0;;;6.0;;
22675;SDS011;12521;43.310;21.876;2023-05-07T13:59:19;8.0;;;6.0;;
22675;SDS011;12521;43.310;21.876;2023-05-07T14:03:56;8.0;;;6.0;;
22675;SDS011;12521;43.310;21.876;2023-05-07T14:08:33;8.0;;;6.0;;
22675;SDS011;12521;43.310;21.876;2023-05-07T14:13:09;8.0;;;6.0;;
22675;SDS011;12521;43.310;21.876;2023-05-07T14:17:45;8.0;;;6.0;;
22675;SDS011;12521;43.310;21.876;2023-05-07T14:22:22;8.0;;;6.0;;
22675;SDS011;12521;43.310;21.876;2023-05-07T14:26:59;8.0;;;6.0;;
22675;SDS011;12521;43.310;21.876;2023-05-07T14:31:36;7.0;;;6.0;;
22675;SDS011;12521;43.310;21.876;2023-05-07T14:36:12;7.0;;;6.0;;
22675;SDS011;12521;43.310;21.876;2023-05-07T14:40:49;7.0;;;6.0;;
22675;SDS011;12521;43.310;21.876;2023-05-07T14:45:25;7.0;;;6.0;;
22675;SDS011;12521;43.310;21.876;2023-05-07T14:50:02;7.0;;;6.0;;
22675;SDS011;12521;43.310;21.876;2023-05-07T14:54:41;7.0;;;6.0;;
22675;SDS011;12521;43.310;21.876;2023-05-07T14:59:18;7.0;;;6.0;;
22675;SDS011;12521;43.310;21.876;2023-05-07T15:03:56;6.0;;;6.0;;
22675;SDS011;12521;43.310;21.876;2023-05-07T15:08:33;6.0;;;6.0;;
22675;SDS011;12521;43.310;21.876;2023-05-07T15:13:11;6.0;;;6.0;;
22675;SDS011;12521;43.310;21.876;2023-05-07T15:17:48;6.0;;;6.0;;
22675;SDS011;12521;43.310;21.876;2023-05-07T15:22:25;6.0;;;6.0;;
22675;SDS011;12521;43.310;21.876;2023-05-07T15:27:02;6.0;;;6.0;;
22675;SDS011;12521;43.310;21.876;2023-05-07T15:40:52;6.0;;;4.0;;
22675;SDS011;12521;43.310;21.876;2023-05-07T15:45:29;6.0;;;4.0;;
22675;SDS011;12521;43.310;21.876;2023-05-07T15:50:08;6.0;;;4.0;;
22675;SDS011;12521;43.310;21.876;2023-05-07T15:54:45;6.0;;;4.0;;
22675;SDS011;12521;43.310;21.876;2023-05-07T15:59:21;6.0;;;4.0;;
22675;SDS011;12521;43.310;21.876;2023-05-07T16:03:57;6.0;;;4.0;;
22675;SDS011;12521;43.310;21.876;2023-05-07T16:08:34;6.0;;;4.0;;
22675;SDS011;12521;43.310;21.876;2023-05-07T16:13:10;6.0;;;4.0;;
22675;SDS011;12521;43.310;21.876;2023-05-07T16:17:47;6.0;;;4.0;;
22675;SDS011;12521;43.310;21.876;2023-05-07T16:22:25;6.0;;;4.0;;
22675;SDS011;12521;43.310;21.876;2023-05-07T16:27:01;6.0;;;4.0;;
22675;SDS011;12521;43.310;21.876;2023-05-07T16:31:39;5.0;;;5.0;;
22675;SDS011;12521;43.310;21.876;2023-05-07T16:36:15;5.0;;;5.0;;
22675;SDS011;12521;43.310;21.876;2023-05-07T16:40:52;6.0;;;4.0;;
22675;SDS011;12521;43.310;21.876;2023-05-07T16:45:29;6.0;;;4.0;;
22675;SDS011;12521;43.310;21.876;2023-05-07T16:50:08;6.0;;;4.0;;
22675;SDS011;12521;43.310;21.876;2023-05-07T16:54:46;6.0;;;4.0;;
22675;SDS011;12521;43.310;21.876;2023-05-07T16:59:23;6.0;;;4.0;;
22675;SDS011;12521;43.310;21.876;2023-05-07T17:03:59;7.0;;;6.0;;
22675;SDS011;12521;43.310;21.876;2023-05-07T17:08:36;7.0;;;6.0;;
22675;SDS011;12521;43.310;21.876;2023-05-07T17:13:13;8.0;;;7.0;;
22675;SDS011;12521;43.310;21.876;2023-05-07T17:17:49;8.0;;;7.0;;
22675;SDS011;12521;43.310;21.876;2023-05-07T17:22:26;7.0;;;6.0;;
22675;SDS011;12521;43.310;21.876;2023-05-07T17:27:03;7.0;;;6.0;;
22675;SDS011;12521;43.310;21.876;2023-05-07T17:31:39;6.0;;;6.0;;
22675;SDS011;12521;43.310;21.876;2023-05-07T17:36:16;6.0;;;6.0;;
22675;SDS011;12521;43.310;21.876;2023-05-07T17:40:53;8.0;;;6.0;;
22675;SDS011;12521;43.310;21.876;2023-05-07T17:45:31;8.0;;;6.0;;
22675;SDS011;12521;43.310;21.876;2023-05-07T17:50:12;8.0;;;6.0;;
22675;SDS011;12521;43.310;21.876;2023-05-07T17:54:49;10.0;;;6.0;;
22675;SDS011;12521;43.310;21.876;2023-05-07T17:59:25;10.0;;;6.0;;
22675;SDS011;12521;43.310;21.876;2023-05-07T18:04:03;10.0;;;6.0;;
22675;SDS011;12521;43.310;21.876;2023-05-07T18:08:40;10.0;;;6.0;;
22675;SDS011;12521;43.310;21.876;2023-05-07T18:13:16;10.0;;;7.0;;
22675;SDS011;12521;43.310;21.876;2023-05-07T18:17:52;10.0;;;7.0;;
22675;SDS011;12521;43.310;21.876;2023-05-07T18:22:29;13.0;;;8.0;;
22675;SDS011;12521;43.310;21.876;2023-05-07T18:27:05;13.0;;;8.0;;
22675;SDS011;12521;43.310;21.876;2023-05-07T18:31:41;16.0;;;10.0;;
22675;SDS011;12521;43.310;21.876;2023-05-07T18:36:17;16.0;;;10.0;;
22675;SDS011;12521;43.310;21.876;2023-05-07T18:41:01;15.0;;;10.0;;
22675;SDS011;12521;43.310;21.876;2023-05-07T18:45:38;15.0;;;10.0;;
22675;SDS011;12521;43.310;21.876;2023-05-07T18:50:15;15.0;;;10.0;;
22675;SDS011;12521;43.310;21.876;2023-05-07T18:54:51;14.0;;;10.0;;
22675;SDS011;12521;43.310;21.876;2023-05-07T18:59:28;14.0;;;10.0;;
22675;SDS011;12521;43.310;21.876;2023-05-07T19:04:04;14.0;;;10.0;;
22675;SDS011;12521;43.310;21.876;2023-05-07T19:08:41;14.0;;;10.0;;
22675;SDS011;12521;43.310;21.876;2023-05-07T19:13:18;13.0;;;10.0;;
22675;SDS011;12521;43.310;21.876;2023-05-07T19:17:55;13.0;;;10.0;;
22675;SDS011;12521;43.310;21.876;2023-05-07T19:22:31;15.0;;;10.0;;
22675;SDS011;12521;43.310;21.876;2023-05-07T19:27:08;15.0;;;10.0;;
22675;SDS011;12521;43.310;21.876;2023-05-07T19:31:45;17.0;;;9.0;;
22675;SDS011;12521;43.310;21.876;2023-05-07T19:36:22;17.0;;;9.0;;
22675;SDS011;12521;43.310;21.876;2023-05-07T19:40:58;21.0;;;12.0;;
22675;SDS011;12521;43.310;21.876;2023-05-07T19:45:35;21.0;;;12.0;;
22675;SDS011;12521;43.310;21.876;2023-05-07T19:50:11;21.0;;;12.0;;
22675;SDS011;12521;43.310;21.876;2023-05-07T19:54:48;25.0;;;15.0;;
22675;SDS011;12521;43.310;21.876;2023-05-07T19:59:26;25.0;;;15.0;;
22675;SDS011;12521;43.310;21.876;2023-05-07T20:04:04;92.0;;;69.0;;
22675;SDS011;12521;43.310;21.876;2023-05-07T20:08:41;92.0;;;69.0;;
22675;SDS011;12521;43.310;21.876;2023-05-07T20:13:18;160.0;;;123.0;;
22675;SDS011;12521;43.310;21.876;2023-05-07T20:17:55;160.0;;;123.0;;
22675;SDS011;12521;43.310;21.876;2023-05-07T20:22:31;224.0;;;198.0;;
22675;SDS011;12521;43.310;21.876;2023-05-07T20:27:08;224.0;;;198.0;;
22675;SDS011;12521;43.310;21.876;2023-05-07T20:31:45;288.0;;;274.0;;
22675;SDS011;12521;43.310;21.876;2023-05-07T20:36:22;288.0;;;274.0;;
22675;SDS011;12521;43.310;21.876;2023-05-07T20:41:05;184.0;;;156.0;;
22675;SDS011;12521;43.310;21.876;2023-05-07T20:45:46;184.0;;;156.0;;
22675;SDS011;12521;43.310;21.876;2023-05-07T20:50:24;184.0;;;156.0;;
22675;SDS011;12521;43.310;21.876;2023-05-07T20:55:03;81.0;;;37.0;;
22675;SDS011;12521;43.310;21.876;2023-05-07T20:59:43;81.0;;;37.0;;
22675;SDS011;12521;43.310;21.876;2023-05-07T21:04:19;86.0;;;45.0;;
22675;SDS011;12521;43.310;21.876;2023-05-07T21:08:55;86.0;;;45.0;;
22675;SDS011;12521;43.310;21.876;2023-05-07T21:13:31;91.0;;;53.0;;
22675;SDS011;12521;43.310;21.876;2023-05-07T21:18:08;91.0;;;53.0;;
22675;SDS011;12521;43.310;21.876;2023-05-07T21:22:45;90.0;;;50.0;;
22675;SDS011;12521;43.310;21.876;2023-05-07T21:27:22;90.0;;;50.0;;
22675;SDS011;12521;43.310;21.876;2023-05-07T21:31:58;88.0;;;46.0;;
22675;SDS011;12521;43.310;21.876;2023-05-07T21:36:36;88.0;;;46.0;;
22675;SDS011;12521;43.310;21.876;2023-05-07T21:41:13;86.0;;;44.0;;
22675;SDS011;12521;43.310;21.876;2023-05-07T21:45:49;86.0;;;44.0;;
22675;SDS011;12521;43.310;21.876;2023-05-07T21:50:26;86.0;;;44.0;;
22675;SDS011;12521;43.310;21.876;2023-05-07T21:55:06;83.0;;;43.0;;
22675;SDS011;12521;43.310;21.876;2023-05-07T21:59:45;83.0;;;43.0;;
22675;SDS011;12521;43.310;21.876;2023-05-07T22:04:22;82.0;;;40.0;;
22675;SDS011;12521;43.310;21.876;2023-05-07T22:08:59;82.0;;;40.0;;
22675;SDS011;12521;43.310;21.876;2023-05-07T22:13:35;82.0;;;36.0;;
22675;SDS011;12521;43.310;21.876;2023-05-07T22:18:11;82.0;;;36.0;;
22675;SDS011;12521;43.310;21.876;2023-05-07T22:22:52;84.0;;;44.0;;
22675;SDS011;12521;43.310;21.876;2023-05-07T22:27:31;84.0;;;44.0;;
22675;SDS011;12521;43.310;21.876;2023-05-07T22:32:07;86.0;;;51.0;;
22675;SDS011;12521;43.310;21.876;2023-05-07T22:36:44;86.0;;;51.0;;
22675;SDS011;12521;43.310;21.876;2023-05-07T22:41:20;86.0;;;46.0;;
22675;SDS011;12521;43.310;21.876;2023-05-07T22:45:58;86.0;;;46.0;;
22675;SDS011;12521;43.310;21.876;2023-05-07T22:50:37;86.0;;;46.0;;
22675;SDS011;12521;43.310;21.876;2023-05-07T22:55:15;85.0;;;40.0;;
22675;SDS011;12521;43.310;21.876;2023-05-07T22:59:54;85.0;;;40.0;;
22675;SDS011;12521;43.310;21.876;2023-05-07T23:04:31;82.0;;;35.0;;
22675;SDS011;12521;43.310;21.876;2023-05-07T23:09:09;82.0;;;35.0;;
22675;SDS011;12521;43.310;21.876;2023-05-07T23:13:46;80.0;;;30.0;;
22675;SDS011;12521;43.310;21.876;2023-05-07T23:18:22;80.0;;;30.0;;
22675;SDS011;12521;43.310;21.876;2023-05-07T23:22:59;78.0;;;24.0;;
22675;SDS011;12521;43.310;21.876;2023-05-07T23:27:36;78.0;;;24.0;;
22675;SDS011;12521;43.310;21.876;2023-05-07T23:32:12;76.0;;;19.0;;
22675;SDS011;12521;43.310;21.876;2023-05-07T23:36:49;76.0;;;19.0;;
22675;SDS011;12521;43.310;21.876;2023-05-07T23:41:26;78.0;;;22.0;;
22675;SDS011;12521;43.310;21.876;2023-05-07T23:46:02;78.0;;;22.0;;
22675;SDS011;12521;43.310;21.876;2023-05-07T23:50:39;78.0;;;22.0;;
22675;SDS011;12521;43.310;21.876;2023-05-07T23:55:16;80.0;;;25.0;;
22675;SDS011;12521;43.310;21.876;2023-05-07T23:59:52;80.0;;;25.0;;
